createdAt,value
2018-12-26T00:00:11.809Z,6.50
2018-12-26T00:01:11.776Z,5.90
2018-12-26T00:02:11.746Z,6.40
2018-12-26T00:03:11.730Z,8.00
2018-12-26T00:04:11.673Z,7.50
2018-12-26T00:05:11.676Z,6.30
2018-12-26T00:06:11.733Z,6.50
2018-12-26T00:07:11.706Z,6.30
2018-12-26T00:08:13.610Z,7.00
2018-12-26T00:09:11.603Z,7.90
2018-12-26T00:10:11.584Z,5.30
2018-12-26T00:11:11.634Z,6.50
2018-12-26T00:12:11.576Z,6.30
2018-12-26T00:13:11.627Z,6.20
2018-12-26T00:14:11.556Z,7.10
2018-12-26T00:15:12.329Z,8.50
2018-12-26T00:16:19.874Z,8.20
2018-12-26T00:19:39.595Z,5.20
2018-12-26T00:20:39.037Z,7.40
2018-12-26T00:21:39.148Z,7.50
2018-12-26T00:22:39.071Z,7.60
2018-12-26T00:23:39.165Z,7.00
2018-12-26T00:24:39.150Z,6.40
2018-12-26T00:25:39.013Z,8.10
2018-12-26T00:26:48.385Z,9.30
2018-12-26T00:27:38.966Z,7.30
2018-12-26T00:28:38.976Z,7.40
2018-12-26T00:29:38.937Z,9.60
2018-12-26T00:30:39.051Z,7.20
2018-12-26T00:31:38.977Z,7.60
2018-12-26T00:32:38.908Z,7.20
2018-12-26T00:33:38.907Z,7.50
2018-12-26T00:34:38.919Z,7.70
2018-12-26T00:35:38.912Z,7.10
2018-12-26T00:36:38.870Z,6.60
2018-12-26T00:37:38.879Z,9.10
2018-12-26T00:38:38.865Z,8.00
2018-12-26T00:39:38.963Z,9.20
2018-12-26T00:40:38.841Z,8.70
2018-12-26T00:41:38.933Z,7.30
2018-12-26T00:42:38.847Z,7.40
2018-12-26T00:43:38.805Z,7.30
2018-12-26T00:44:38.807Z,7.00
2018-12-26T00:45:38.794Z,7.50
2018-12-26T00:46:38.832Z,7.90
2018-12-26T00:47:38.802Z,7.30
2018-12-26T00:48:38.797Z,7.50
2018-12-26T00:49:38.724Z,8.00
2018-12-26T00:50:38.736Z,7.30
2018-12-26T00:51:38.754Z,6.90
2018-12-26T00:52:38.839Z,6.50
2018-12-26T00:53:38.813Z,8.00
2018-12-26T00:54:38.697Z,10.20
2018-12-26T00:55:38.665Z,10.30
2018-12-26T00:56:38.676Z,7.50
2018-12-26T00:57:39.431Z,6.60
2018-12-26T00:58:38.679Z,7.40
2018-12-26T00:59:38.666Z,8.90
2018-12-26T01:00:38.638Z,9.60
2018-12-26T01:01:38.641Z,8.70
2018-12-26T01:02:38.674Z,7.10
2018-12-26T01:03:38.591Z,7.50
2018-12-26T01:04:38.643Z,8.30
2018-12-26T01:05:38.557Z,10.20
2018-12-26T01:06:39.458Z,8.80
2018-12-26T01:07:38.553Z,9.80
2018-12-26T01:08:38.541Z,8.80
2018-12-26T01:09:38.520Z,8.50
2018-12-26T01:10:38.558Z,8.30
2018-12-26T01:11:38.526Z,8.60
2018-12-26T01:12:38.516Z,8.10
2018-12-26T01:13:38.550Z,7.40
2018-12-26T01:14:38.483Z,8.00
2018-12-26T01:15:38.569Z,9.00
2018-12-26T01:16:38.513Z,7.90
2018-12-26T01:17:38.516Z,8.90
2018-12-26T01:18:38.419Z,9.60
2018-12-26T01:19:38.404Z,7.70
2018-12-26T01:20:38.428Z,9.00
2018-12-26T01:21:38.411Z,8.60
2018-12-26T01:22:38.467Z,6.80
2018-12-26T01:23:38.359Z,9.40
2018-12-26T01:24:38.378Z,8.70
2018-12-26T01:25:38.386Z,9.40
2018-12-26T01:26:38.392Z,8.30
2018-12-26T01:27:38.346Z,9.90
2018-12-26T01:28:38.351Z,7.30
2018-12-26T01:29:38.336Z,7.10
2018-12-26T01:30:38.359Z,8.60
2018-12-26T01:31:38.327Z,10.00
2018-12-26T01:32:38.290Z,7.50
2018-12-26T01:33:38.297Z,7.60
2018-12-26T01:34:38.260Z,9.00
2018-12-26T01:35:38.246Z,9.70
2018-12-26T01:36:38.284Z,8.00
2018-12-26T01:37:38.266Z,8.60
2018-12-26T01:38:38.221Z,8.60
2018-12-26T01:39:38.199Z,8.20
2018-12-26T01:40:38.187Z,9.20
2018-12-26T01:41:38.216Z,7.70
2018-12-26T01:42:38.193Z,7.10
2018-12-26T01:43:38.159Z,7.50
2018-12-26T01:44:38.186Z,6.70
2018-12-26T01:45:38.166Z,8.60
2018-12-26T01:46:38.162Z,7.60
2018-12-26T01:47:38.111Z,6.50
2018-12-26T01:48:38.113Z,7.90
2018-12-26T01:49:38.104Z,8.80
2018-12-26T01:50:38.111Z,9.10
2018-12-26T01:51:38.091Z,8.30
2018-12-26T01:52:38.083Z,8.10
2018-12-26T01:53:38.075Z,8.90
2018-12-26T01:54:38.087Z,8.80
2018-12-26T01:55:38.032Z,7.50
2018-12-26T01:56:38.057Z,8.90
2018-12-26T01:57:38.034Z,7.30
2018-12-26T01:58:38.044Z,8.50
2018-12-26T01:59:38.859Z,8.00
2018-12-26T02:00:38.065Z,9.20
2018-12-26T02:01:37.951Z,7.90
2018-12-26T02:02:38.063Z,7.70
2018-12-26T02:03:37.979Z,8.50
2018-12-26T02:04:37.938Z,9.70
2018-12-26T02:05:37.937Z,8.70
2018-12-26T02:06:37.975Z,7.50
2018-12-26T02:07:37.908Z,8.50
2018-12-26T02:08:37.963Z,7.30
2018-12-26T02:09:37.881Z,7.90
2018-12-26T02:10:37.889Z,6.50
2018-12-26T02:11:37.981Z,7.40
2018-12-26T02:12:37.892Z,10.20
2018-12-26T02:13:37.875Z,9.10
2018-12-26T02:14:37.886Z,9.20
2018-12-26T02:15:37.825Z,8.90
2018-12-26T02:16:37.850Z,8.80
2018-12-26T02:17:38.451Z,7.90
2018-12-26T02:18:37.779Z,9.40
2018-12-26T02:19:37.756Z,8.70
2018-12-26T02:20:37.778Z,8.70
2018-12-26T02:21:37.746Z,8.20
2018-12-26T02:22:37.851Z,7.70
2018-12-26T02:23:37.725Z,8.90
2018-12-26T02:24:37.715Z,7.90
2018-12-26T02:25:37.723Z,9.00
2018-12-26T02:26:37.713Z,7.80
2018-12-26T02:27:37.693Z,8.90
2018-12-26T02:28:37.723Z,8.40
2018-12-26T02:29:37.686Z,7.00
2018-12-26T02:30:37.683Z,6.60
2018-12-26T02:31:37.634Z,7.00
2018-12-26T02:32:37.638Z,8.20
2018-12-26T02:33:37.627Z,8.30
2018-12-26T02:34:37.641Z,7.50
2018-12-26T02:35:37.657Z,8.40
2018-12-26T02:36:37.623Z,8.00
2018-12-26T02:37:37.606Z,7.40
2018-12-26T02:38:38.463Z,6.90
2018-12-26T02:39:37.610Z,8.10
2018-12-26T02:40:37.561Z,7.90
2018-12-26T02:41:46.982Z,9.10
2018-12-26T02:42:37.518Z,9.40
2018-12-26T02:43:37.517Z,8.20
2018-12-26T02:44:37.512Z,8.10
2018-12-26T02:45:37.560Z,8.80
2018-12-26T02:47:40.409Z,9.70
2018-12-26T02:48:49.607Z,9.90
2018-12-26T02:49:49.654Z,8.80
2018-12-26T02:50:40.522Z,7.90
2018-12-26T02:51:40.394Z,8.20
2018-12-26T02:52:40.371Z,8.40
2018-12-26T02:53:49.178Z,8.30
2018-12-26T02:54:40.348Z,7.20
2018-12-26T02:55:40.324Z,8.30
2018-12-26T02:56:46.557Z,11.00
2018-12-26T02:57:41.308Z,9.30
2018-12-26T02:58:40.325Z,7.50
2018-12-26T02:59:40.350Z,8.10
2018-12-26T03:00:40.256Z,7.40
2018-12-26T03:01:40.273Z,9.80
2018-12-26T03:02:40.262Z,9.20
2018-12-26T03:03:40.264Z,9.00
2018-12-26T03:04:40.214Z,9.10
2018-12-26T03:05:40.275Z,9.10
2018-12-26T03:06:40.215Z,9.40
2018-12-26T03:07:40.187Z,9.90
2018-12-26T03:08:40.198Z,9.20
2018-12-26T03:09:40.196Z,8.60
2018-12-26T03:10:40.157Z,9.50
2018-12-26T03:11:40.231Z,10.40
2018-12-26T03:12:40.148Z,10.40
2018-12-26T03:13:40.129Z,9.90
2018-12-26T03:14:40.181Z,10.00
2018-12-26T03:15:40.126Z,8.70
2018-12-26T03:16:40.106Z,9.30
2018-12-26T03:17:40.100Z,9.60
2018-12-26T03:18:40.092Z,11.20
2018-12-26T03:19:40.073Z,10.50
2018-12-26T03:20:40.104Z,10.10
2018-12-26T03:21:40.059Z,9.90
2018-12-26T03:22:40.040Z,10.80
2018-12-26T03:23:40.035Z,11.10
2018-12-26T03:24:40.038Z,10.60
2018-12-26T03:25:40.054Z,10.30
2018-12-26T03:26:40.047Z,10.10
2018-12-26T03:27:40.017Z,10.40
2018-12-26T03:28:39.978Z,13.00
2018-12-26T03:29:40.025Z,11.70
2018-12-26T03:30:39.992Z,10.50
2018-12-26T03:31:39.976Z,12.60
2018-12-26T03:32:39.927Z,11.70
2018-12-26T03:33:39.962Z,13.00
2018-12-26T03:34:39.905Z,11.10
2018-12-26T03:35:39.912Z,11.00
2018-12-26T03:36:39.924Z,12.30
2018-12-26T03:37:39.909Z,12.30
2018-12-26T03:38:39.868Z,12.50
2018-12-26T03:39:39.858Z,12.20
2018-12-26T03:40:39.842Z,14.10
2018-12-26T03:41:39.840Z,14.20
2018-12-26T03:42:39.854Z,12.80
2018-12-26T03:43:39.825Z,12.20
2018-12-26T03:44:39.879Z,12.00
2018-12-26T03:45:39.800Z,13.00
2018-12-26T03:46:39.775Z,13.70
2018-12-26T03:47:39.766Z,15.20
2018-12-26T03:48:40.591Z,14.80
2018-12-26T03:49:39.786Z,15.10
2018-12-26T03:50:39.734Z,14.80
2018-12-26T03:51:39.721Z,17.20
2018-12-26T03:52:39.711Z,14.60
2018-12-26T03:53:39.725Z,16.60
2018-12-26T03:54:39.724Z,15.40
2018-12-26T03:55:39.690Z,16.40
2018-12-26T03:56:39.680Z,15.90
2018-12-26T03:57:39.659Z,16.40
2018-12-26T03:58:39.824Z,16.30
2018-12-26T03:59:39.639Z,17.40
2018-12-26T04:00:39.628Z,18.60
2018-12-26T04:01:39.615Z,16.50
2018-12-26T04:02:39.630Z,17.90
2018-12-26T04:03:39.696Z,18.10
2018-12-26T04:04:39.650Z,17.80
2018-12-26T04:05:39.578Z,18.60
2018-12-26T04:06:39.612Z,19.30
2018-12-26T04:07:39.531Z,19.60
2018-12-26T04:08:39.540Z,19.90
2018-12-26T04:09:39.541Z,20.40
2018-12-26T04:10:39.547Z,20.10
2018-12-26T04:11:39.530Z,20.40
2018-12-26T04:12:39.510Z,21.90
2018-12-26T04:13:39.514Z,19.40
2018-12-26T04:14:39.477Z,20.80
2018-12-26T04:15:39.491Z,22.40
2018-12-26T04:16:39.482Z,20.20
2018-12-26T04:17:39.450Z,19.80
2018-12-26T04:18:39.455Z,21.40
2018-12-26T04:19:39.457Z,21.30
2018-12-26T04:20:39.410Z,22.00
2018-12-26T04:21:39.416Z,21.10
2018-12-26T04:22:39.462Z,23.50
2018-12-26T04:23:39.384Z,22.80
2018-12-26T04:24:39.382Z,22.20
2018-12-26T04:25:39.450Z,20.40
2018-12-26T04:26:39.343Z,21.50
2018-12-26T04:27:39.343Z,23.10
2018-12-26T04:28:39.337Z,22.30
2018-12-26T04:29:39.334Z,23.50
2018-12-26T04:30:39.330Z,22.00
2018-12-26T04:31:39.292Z,22.40
2018-12-26T04:32:39.282Z,22.90
2018-12-26T04:33:39.287Z,22.70
2018-12-26T04:34:39.277Z,24.80
2018-12-26T04:35:39.273Z,21.80
2018-12-26T04:36:39.280Z,24.30
2018-12-26T04:37:39.240Z,22.50
2018-12-26T04:38:39.220Z,25.60
2018-12-26T04:39:39.231Z,24.70
2018-12-26T04:40:39.206Z,22.70
2018-12-26T04:41:39.216Z,23.10
2018-12-26T04:42:39.206Z,25.80
2018-12-26T04:43:39.185Z,22.90
2018-12-26T04:44:39.223Z,24.40
2018-12-26T04:45:39.237Z,24.80
2018-12-26T04:46:39.143Z,24.80
2018-12-26T04:47:39.180Z,24.30
2018-12-26T04:48:39.154Z,25.60
2018-12-26T04:49:39.130Z,24.40
2018-12-26T04:50:39.105Z,23.00
2018-12-26T04:51:39.080Z,23.80
2018-12-26T04:52:39.075Z,23.90
2018-12-26T04:53:39.101Z,24.20
2018-12-26T04:54:39.038Z,24.10
2018-12-26T04:55:39.043Z,23.30
2018-12-26T04:56:39.052Z,23.10
2018-12-26T04:57:39.045Z,26.10
2018-12-26T04:58:39.117Z,24.90
2018-12-26T04:59:39.002Z,23.40
2018-12-26T05:00:38.975Z,24.40
2018-12-26T05:01:39.015Z,24.70
2018-12-26T05:02:38.956Z,23.50
2018-12-26T05:03:38.969Z,25.30
2018-12-26T05:04:38.977Z,23.30
2018-12-26T05:05:38.928Z,23.50
2018-12-26T05:06:38.916Z,24.60
2018-12-26T05:07:38.909Z,23.80
2018-12-26T05:08:38.922Z,25.30
2018-12-26T05:09:38.900Z,23.90
2018-12-26T05:10:38.885Z,24.80
2018-12-26T05:11:38.858Z,25.50
2018-12-26T05:12:38.859Z,26.90
2018-12-26T05:13:38.828Z,24.10
2018-12-26T05:14:38.857Z,25.00
2018-12-26T05:15:38.838Z,24.20
2018-12-26T05:16:38.854Z,25.50
2018-12-26T05:17:38.794Z,24.00
2018-12-26T05:18:38.817Z,24.20
2018-12-26T05:19:38.774Z,25.30
2018-12-26T05:20:39.251Z,25.30
2018-12-26T05:21:38.765Z,26.60
2018-12-26T05:22:38.758Z,24.20
2018-12-26T05:23:38.748Z,24.40
2018-12-26T05:24:38.734Z,26.80
2018-12-26T05:25:38.771Z,26.40
2018-12-26T05:26:38.743Z,26.30
2018-12-26T05:27:38.809Z,25.00
2018-12-26T05:28:38.692Z,24.10
2018-12-26T05:29:38.707Z,24.50
2018-12-26T05:30:38.704Z,24.50
2018-12-26T05:31:38.716Z,25.30
2018-12-26T05:32:39.112Z,26.00
2018-12-26T05:33:38.650Z,24.70
2018-12-26T05:34:38.650Z,26.00
2018-12-26T05:35:38.630Z,25.60
2018-12-26T05:36:38.600Z,25.60
2018-12-26T05:37:38.717Z,25.80
2018-12-26T05:38:38.579Z,26.10
2018-12-26T05:39:39.179Z,26.30
2018-12-26T05:40:38.564Z,25.20
2018-12-26T05:41:38.626Z,26.10
2018-12-26T05:42:38.526Z,26.50
2018-12-26T05:43:38.569Z,26.20
2018-12-26T05:44:38.510Z,25.60
2018-12-26T05:45:38.583Z,26.10
2018-12-26T05:46:38.484Z,24.50
2018-12-26T05:47:38.619Z,25.00
2018-12-26T05:48:38.487Z,26.40
2018-12-26T05:49:38.485Z,26.20
2018-12-26T05:50:38.519Z,25.20
2018-12-26T05:51:38.466Z,25.70
2018-12-26T05:52:38.409Z,25.30
2018-12-26T05:53:38.448Z,26.40
2018-12-26T05:54:38.419Z,28.00
2018-12-26T05:55:38.418Z,27.80
2018-12-26T05:56:38.373Z,27.80
2018-12-26T05:57:42.810Z,27.20
2018-12-26T05:58:38.412Z,25.80
2018-12-26T05:59:38.391Z,26.50
2018-12-26T06:00:38.357Z,28.20
2018-12-26T06:01:38.351Z,28.30
2018-12-26T06:02:38.389Z,27.70
2018-12-26T06:03:38.398Z,29.90
2018-12-26T06:04:38.359Z,29.90
2018-12-26T06:05:38.306Z,29.10
2018-12-26T06:06:38.334Z,27.90
2018-12-26T06:07:38.293Z,28.30
2018-12-26T06:08:38.253Z,30.30
2018-12-26T06:09:38.324Z,30.80
2018-12-26T06:10:38.243Z,28.50
2018-12-26T06:11:38.224Z,30.50
2018-12-26T06:12:38.219Z,29.70
2018-12-26T06:13:38.262Z,32.00
2018-12-26T06:14:38.183Z,29.00
2018-12-26T06:15:38.713Z,29.80
2018-12-26T06:16:38.176Z,30.60
2018-12-26T06:17:38.153Z,29.40
2018-12-26T06:18:38.131Z,29.90
2018-12-26T06:19:38.952Z,28.50
2018-12-26T06:20:38.133Z,31.70
2018-12-26T06:21:38.120Z,29.30
2018-12-26T06:22:38.082Z,28.10
2018-12-26T06:23:39.111Z,30.10
2018-12-26T06:24:38.065Z,30.70
2018-12-26T06:25:38.255Z,28.70
2018-12-26T06:26:38.176Z,31.10
2018-12-26T06:27:38.041Z,29.10
2018-12-26T06:28:38.054Z,29.10
2018-12-26T06:29:38.017Z,29.70
2018-12-26T06:30:38.021Z,29.60
2018-12-26T06:31:38.723Z,34.00
2018-12-26T06:32:37.979Z,31.10
2018-12-26T06:33:37.974Z,31.00
2018-12-26T06:34:37.963Z,31.60
2018-12-26T06:35:39.115Z,29.10
2018-12-26T06:36:37.972Z,30.10
2018-12-26T06:37:37.982Z,31.10
2018-12-26T06:38:37.922Z,28.90
2018-12-26T06:39:37.923Z,29.70
2018-12-26T06:40:37.924Z,30.10
2018-12-26T06:41:37.902Z,30.70
2018-12-26T06:42:38.729Z,29.90
2018-12-26T06:43:37.885Z,29.60
2018-12-26T06:44:37.905Z,31.20
2018-12-26T06:45:37.841Z,30.60
2018-12-26T06:46:37.886Z,30.30
2018-12-26T06:47:37.872Z,31.50
2018-12-26T06:48:37.803Z,30.80
2018-12-26T06:49:37.788Z,30.80
2018-12-26T06:50:37.779Z,29.10
2018-12-26T06:51:37.822Z,31.30
2018-12-26T06:52:38.698Z,33.20
2018-12-26T06:53:37.891Z,29.60
2018-12-26T06:54:37.786Z,31.90
2018-12-26T06:55:37.747Z,29.80
2018-12-26T06:56:37.755Z,31.60
2018-12-26T06:57:37.741Z,28.70
2018-12-26T06:58:37.740Z,29.50
2018-12-26T06:59:37.754Z,29.70
2018-12-26T07:00:37.866Z,32.20
2018-12-26T07:01:37.670Z,29.10
2018-12-26T07:02:37.652Z,29.70
2018-12-26T07:03:37.689Z,32.40
2018-12-26T07:04:37.644Z,31.60
2018-12-26T07:05:37.668Z,32.70
2018-12-26T07:06:37.625Z,32.50
2018-12-26T07:07:37.606Z,30.80
2018-12-26T07:08:37.628Z,31.90
2018-12-26T07:11:28.249Z,34.50
2018-12-26T07:12:37.649Z,32.30
2018-12-26T07:13:36.666Z,31.30
2018-12-26T07:14:28.209Z,30.90
2018-12-26T07:15:37.770Z,32.40
2018-12-26T07:16:28.164Z,31.90
2018-12-26T07:17:29.681Z,30.40
2018-12-26T07:18:28.165Z,30.80
2018-12-26T07:19:28.174Z,32.40
2018-12-26T07:20:28.117Z,31.50
2018-12-26T07:21:28.121Z,28.90
2018-12-26T07:22:35.778Z,32.40
2018-12-26T07:23:28.120Z,29.30
2018-12-26T07:24:28.146Z,31.00
2018-12-26T07:25:28.078Z,30.60
2018-12-26T07:26:28.125Z,30.40
2018-12-26T07:27:28.123Z,31.60
2018-12-26T07:28:28.117Z,34.50
2018-12-26T07:29:28.133Z,30.90
2018-12-26T07:30:28.078Z,31.90
2018-12-26T07:31:28.100Z,30.90
2018-12-26T07:32:28.157Z,32.00
2018-12-26T07:33:28.022Z,31.80
2018-12-26T07:34:28.032Z,31.70
2018-12-26T07:35:28.019Z,31.00
2018-12-26T07:36:27.978Z,31.20
2018-12-26T07:37:28.015Z,31.50
2018-12-26T07:38:27.970Z,29.00
2018-12-26T07:39:27.966Z,32.20
2018-12-26T07:40:27.916Z,30.60
2018-12-26T07:41:27.911Z,30.30
2018-12-26T07:42:27.946Z,31.30
2018-12-26T07:43:27.909Z,31.20
2018-12-26T07:44:27.883Z,31.50
2018-12-26T07:45:27.881Z,29.40
2018-12-26T07:46:27.888Z,29.90
2018-12-26T07:47:27.875Z,32.50
2018-12-26T07:48:28.989Z,31.80
2018-12-26T07:49:27.840Z,32.40
2018-12-26T07:50:27.816Z,31.10
2018-12-26T07:51:27.874Z,30.90
2018-12-26T07:52:30.562Z,34.00
2018-12-26T07:53:27.826Z,32.00
2018-12-26T07:54:27.793Z,31.70
2018-12-26T07:55:27.772Z,32.60
2018-12-26T07:56:27.856Z,33.20
2018-12-26T07:57:27.813Z,33.40
2018-12-26T07:58:27.810Z,33.40
2018-12-26T07:59:27.803Z,32.30
2018-12-26T08:00:27.770Z,31.70
2018-12-26T08:01:27.742Z,30.30
2018-12-26T08:02:27.732Z,30.80
2018-12-26T08:03:27.869Z,32.90
2018-12-26T08:04:27.719Z,32.50
2018-12-26T08:05:27.710Z,34.10
2018-12-26T08:06:27.654Z,33.00
2018-12-26T08:07:27.659Z,32.40
2018-12-26T08:08:27.681Z,31.90
2018-12-26T08:09:28.373Z,31.60
2018-12-26T08:10:27.653Z,31.40
2018-12-26T08:11:27.672Z,30.70
2018-12-26T08:12:27.587Z,33.90
2018-12-26T08:13:27.710Z,33.20
2018-12-26T08:14:27.619Z,34.00
2018-12-26T08:15:28.642Z,34.40
2018-12-26T08:17:49.482Z,31.80
2018-12-26T08:20:13.784Z,37.20
2018-12-26T08:22:35.183Z,34.00
2018-12-26T08:23:35.159Z,34.80
2018-12-26T08:24:35.193Z,33.00
2018-12-26T08:25:35.964Z,35.90
2018-12-26T08:26:36.318Z,33.50
2018-12-26T08:27:36.393Z,33.40
2018-12-26T08:28:37.283Z,34.20
2018-12-26T08:29:36.990Z,33.60
2018-12-26T08:30:35.425Z,32.30
2018-12-26T08:31:43.265Z,35.30
2018-12-26T08:32:35.068Z,37.00
2018-12-26T08:33:35.065Z,35.60
2018-12-26T08:34:35.017Z,37.00
2018-12-26T08:35:35.002Z,36.10
2018-12-26T08:36:34.991Z,34.10
2018-12-26T08:37:34.978Z,35.10
2018-12-26T08:38:34.987Z,36.80
2018-12-26T08:39:34.968Z,38.40
2018-12-26T08:40:34.936Z,39.10
2018-12-26T08:41:34.924Z,37.20
2018-12-26T08:42:34.932Z,36.00
2018-12-26T08:43:35.037Z,38.50
2018-12-26T08:44:34.888Z,33.10
2018-12-26T08:45:34.889Z,34.90
2018-12-26T08:46:34.898Z,35.30
2018-12-26T08:47:34.864Z,37.50
2018-12-26T08:48:34.889Z,37.10
2018-12-26T08:49:34.881Z,34.50
2018-12-26T08:50:34.825Z,36.20
2018-12-26T08:51:34.844Z,35.90
2018-12-26T08:52:34.816Z,37.10
2018-12-26T08:53:34.796Z,38.30
2018-12-26T08:54:34.799Z,38.20
2018-12-26T08:55:34.797Z,37.00
2018-12-26T08:56:34.862Z,35.00
2018-12-26T08:57:34.777Z,32.00
2018-12-26T08:58:35.243Z,34.10
2018-12-26T08:59:34.747Z,33.90
2018-12-26T09:00:34.748Z,33.30
2018-12-26T09:01:34.729Z,32.80
2018-12-26T09:02:34.744Z,32.50
2018-12-26T09:03:34.705Z,31.10
2018-12-26T09:04:34.686Z,30.60
2018-12-26T09:05:34.742Z,33.50
2018-12-26T09:06:34.698Z,32.30
2018-12-26T09:07:34.667Z,32.00
2018-12-26T09:08:34.638Z,34.50
2018-12-26T09:09:34.655Z,33.00
2018-12-26T09:10:34.826Z,36.00
2018-12-26T09:11:34.626Z,34.40
2018-12-26T09:12:34.591Z,35.40
2018-12-26T09:13:34.606Z,34.50
2018-12-26T09:14:34.584Z,39.20
2018-12-26T09:15:34.606Z,36.40
2018-12-26T09:16:34.613Z,36.40
2018-12-26T09:17:34.564Z,33.70
2018-12-26T09:18:34.573Z,39.00
2018-12-26T09:19:34.562Z,36.50
2018-12-26T09:20:34.610Z,35.90
2018-12-26T09:21:34.535Z,36.50
2018-12-26T09:22:34.503Z,34.00
2018-12-26T09:23:34.491Z,35.30
2018-12-26T09:24:34.493Z,37.80
2018-12-26T09:25:34.486Z,32.20
2018-12-26T09:26:34.458Z,32.70
2018-12-26T09:27:34.457Z,34.80
2018-12-26T09:28:34.475Z,32.30
2018-12-26T09:29:34.515Z,34.20
2018-12-26T09:30:34.415Z,32.60
2018-12-26T09:31:34.399Z,31.10
2018-12-26T09:32:34.385Z,30.70
2018-12-26T09:33:34.390Z,27.90
2018-12-26T09:34:34.374Z,30.00
2018-12-26T09:35:34.360Z,27.50
2018-12-26T09:36:34.340Z,28.60
2018-12-26T09:37:34.334Z,26.80
2018-12-26T09:38:34.335Z,31.00
2018-12-26T09:39:34.354Z,29.50
2018-12-26T09:40:34.357Z,28.30
2018-12-26T09:41:34.317Z,26.60
2018-12-26T09:42:34.343Z,26.80
2018-12-26T09:43:34.349Z,24.70
2018-12-26T09:44:34.263Z,23.10
2018-12-26T09:45:34.312Z,23.90
2018-12-26T09:46:34.253Z,25.20
2018-12-26T09:47:34.223Z,23.90
2018-12-26T09:48:34.220Z,24.50
2018-12-26T09:49:34.204Z,22.90
2018-12-26T09:50:34.209Z,22.70
2018-12-26T09:51:34.209Z,22.40
2018-12-26T09:52:34.212Z,23.50
2018-12-26T09:53:34.176Z,23.40
2018-12-26T09:54:34.154Z,21.20
2018-12-26T09:55:34.157Z,22.00
2018-12-26T09:56:34.176Z,21.80
2018-12-26T09:57:34.129Z,21.80
2018-12-26T09:58:34.139Z,23.40
2018-12-26T09:59:34.091Z,21.00
2018-12-26T10:00:34.159Z,20.10
2018-12-26T10:01:34.108Z,20.20
2018-12-26T10:02:34.094Z,19.30
2018-12-26T10:03:34.051Z,19.70
2018-12-26T10:04:34.027Z,21.10
2018-12-26T10:05:34.027Z,22.30
2018-12-26T10:06:34.010Z,20.70
2018-12-26T10:07:34.057Z,18.10
2018-12-26T10:08:33.995Z,19.20
2018-12-26T10:09:33.978Z,19.60
2018-12-26T10:10:33.982Z,19.60
2018-12-26T10:11:33.970Z,18.50
2018-12-26T10:12:33.958Z,20.80
2018-12-26T10:13:33.966Z,23.00
2018-12-26T10:14:33.937Z,20.10
2018-12-26T10:15:33.928Z,19.70
2018-12-26T10:16:33.912Z,23.30
2018-12-26T10:17:33.912Z,21.00
2018-12-26T10:18:33.922Z,20.90
2018-12-26T10:19:33.899Z,19.50
2018-12-26T10:20:33.875Z,19.60
2018-12-26T10:21:33.906Z,21.80
2018-12-26T10:22:33.853Z,19.00
2018-12-26T10:23:33.852Z,20.70
2018-12-26T10:24:33.862Z,20.20
2018-12-26T10:25:33.843Z,21.10
2018-12-26T10:26:33.804Z,20.20
2018-12-26T10:27:33.808Z,21.70
2018-12-26T10:28:33.817Z,21.50
2018-12-26T10:29:33.775Z,22.90
2018-12-26T10:30:33.773Z,21.40
2018-12-26T10:31:33.762Z,20.70
2018-12-26T10:32:33.757Z,19.00
2018-12-26T10:33:33.765Z,20.50
2018-12-26T10:34:33.728Z,19.90
2018-12-26T10:35:33.774Z,19.50
2018-12-26T10:36:33.734Z,18.50
2018-12-26T10:37:33.693Z,19.00
2018-12-26T10:38:33.729Z,18.30
2018-12-26T10:39:33.754Z,19.50
2018-12-26T10:40:33.676Z,19.40
2018-12-26T10:41:33.655Z,18.50
2018-12-26T10:42:33.683Z,17.40
2018-12-26T10:43:33.631Z,19.90
2018-12-26T10:44:33.623Z,18.00
2018-12-26T10:45:33.604Z,18.10
2018-12-26T10:46:33.608Z,17.60
2018-12-26T10:47:33.585Z,20.00
2018-12-26T10:48:33.632Z,19.70
2018-12-26T10:49:33.571Z,17.60
2018-12-26T10:50:33.559Z,18.40
2018-12-26T10:51:33.598Z,20.80
2018-12-26T10:52:33.550Z,20.40
2018-12-26T10:53:33.529Z,20.30
2018-12-26T10:54:33.515Z,17.20
2018-12-26T10:55:33.516Z,18.90
2018-12-26T10:56:33.477Z,19.40
2018-12-26T10:57:33.480Z,19.40
2018-12-26T10:58:33.451Z,18.80
2018-12-26T10:59:33.476Z,20.20
2018-12-26T11:00:33.556Z,20.10
2018-12-26T11:01:33.446Z,19.80
2018-12-26T11:02:33.424Z,21.00
2018-12-26T11:03:33.415Z,20.40
2018-12-26T11:04:33.457Z,19.70
2018-12-26T11:05:33.391Z,19.60
2018-12-26T11:06:33.368Z,22.90
2018-12-26T11:07:33.388Z,20.30
2018-12-26T11:08:33.353Z,21.40
2018-12-26T11:09:33.355Z,21.60
2018-12-26T11:10:42.313Z,23.50
2018-12-26T11:11:33.378Z,21.60
2018-12-26T11:12:42.902Z,21.10
2018-12-26T11:13:42.359Z,22.40
2018-12-26T11:14:42.920Z,23.80
2018-12-26T11:15:42.444Z,23.10
2018-12-26T11:16:40.983Z,24.00
2018-12-26T11:17:33.279Z,22.20
2018-12-26T11:18:33.257Z,21.00
2018-12-26T11:19:33.230Z,22.00
2018-12-26T11:20:33.252Z,19.90
2018-12-26T11:21:33.259Z,21.70
2018-12-26T11:22:33.205Z,22.20
2018-12-26T11:23:33.189Z,22.10
2018-12-26T11:24:33.207Z,21.80
2018-12-26T11:25:33.174Z,20.90
2018-12-26T11:26:33.227Z,22.90
2018-12-26T11:27:33.176Z,21.10
2018-12-26T11:28:33.169Z,21.00
2018-12-26T11:29:33.146Z,22.80
2018-12-26T11:30:33.123Z,23.30
2018-12-26T11:31:33.126Z,22.90
2018-12-26T11:32:33.151Z,21.40
2018-12-26T11:33:33.098Z,25.60
2018-12-26T11:34:33.140Z,24.00
2018-12-26T11:35:33.069Z,24.50
2018-12-26T11:36:33.077Z,25.80
2018-12-26T11:37:33.122Z,29.20
2018-12-26T11:38:33.064Z,33.60
2018-12-26T11:39:33.039Z,26.40
2018-12-26T11:40:33.054Z,23.80
2018-12-26T11:41:33.005Z,22.50
2018-12-26T11:42:33.018Z,26.70
2018-12-26T11:43:33.006Z,25.30
2018-12-26T11:44:33.026Z,26.30
2018-12-26T11:45:33.001Z,25.70
2018-12-26T11:46:32.996Z,24.30
2018-12-26T11:47:33.001Z,25.30
2018-12-26T11:48:32.941Z,27.00
2018-12-26T11:49:32.937Z,27.30
2018-12-26T11:50:32.931Z,29.20
2018-12-26T11:51:32.917Z,29.00
2018-12-26T11:52:32.957Z,28.60
2018-12-26T11:53:32.946Z,24.90
2018-12-26T11:54:32.885Z,25.80
2018-12-26T11:55:32.882Z,26.40
2018-12-26T11:56:32.858Z,29.00
2018-12-26T11:57:32.873Z,26.20
2018-12-26T11:58:32.877Z,27.90
2018-12-26T11:59:32.848Z,26.60
2018-12-26T12:00:32.836Z,28.90
2018-12-26T12:01:32.816Z,29.00
2018-12-26T12:02:32.835Z,25.40
2018-12-26T12:03:32.800Z,25.10
2018-12-26T12:04:32.839Z,25.50
2018-12-26T12:05:32.758Z,27.80
2018-12-26T12:06:32.756Z,29.30
2018-12-26T12:07:32.824Z,29.00
2018-12-26T12:08:32.747Z,28.80
2018-12-26T12:09:32.725Z,30.40
2018-12-26T12:10:32.735Z,25.60
2018-12-26T12:11:32.697Z,30.20
2018-12-26T12:12:32.725Z,25.90
2018-12-26T12:13:32.692Z,29.90
2018-12-26T12:14:32.683Z,31.70
2018-12-26T12:15:32.674Z,37.00
2018-12-26T12:16:32.646Z,33.30
2018-12-26T12:17:32.683Z,31.60
2018-12-26T12:18:32.670Z,30.20
2018-12-26T12:19:32.634Z,29.80
2018-12-26T12:20:32.651Z,30.20
2018-12-26T12:21:32.600Z,31.20
2018-12-26T12:22:32.619Z,32.80
2018-12-26T12:23:32.595Z,30.30
2018-12-26T12:24:32.572Z,32.90
2018-12-26T12:25:32.579Z,31.70
2018-12-26T12:26:32.560Z,29.80
2018-12-26T12:27:32.606Z,31.40
2018-12-26T12:28:32.558Z,33.00
2018-12-26T12:29:36.077Z,31.80
2018-12-26T12:30:32.520Z,33.10
2018-12-26T12:31:32.491Z,33.80
2018-12-26T12:32:32.538Z,38.50
2018-12-26T12:33:32.596Z,38.60
2018-12-26T12:34:32.652Z,36.10
2018-12-26T12:35:32.488Z,37.40
2018-12-26T12:36:32.452Z,34.80
2018-12-26T12:37:32.470Z,33.50
2018-12-26T12:38:32.548Z,37.90
2018-12-26T12:39:32.442Z,35.60
2018-12-26T12:40:32.441Z,37.10
2018-12-26T12:41:32.396Z,41.60
2018-12-26T12:42:32.390Z,43.70
2018-12-26T12:43:32.420Z,50.20
2018-12-26T12:44:32.414Z,40.70
2018-12-26T12:45:32.386Z,44.40
2018-12-26T12:46:32.363Z,46.00
2018-12-26T12:47:32.331Z,44.90
2018-12-26T12:48:32.309Z,45.30
2018-12-26T12:49:32.356Z,48.30
2018-12-26T12:50:32.387Z,41.80
2018-12-26T12:51:32.301Z,46.10
2018-12-26T12:52:32.286Z,42.90
2018-12-26T12:53:32.272Z,45.30
2018-12-26T12:54:32.276Z,50.40
2018-12-26T12:55:32.238Z,50.70
2018-12-26T12:56:32.264Z,50.50
2018-12-26T12:57:32.256Z,53.10
2018-12-26T12:58:32.223Z,55.50
2018-12-26T12:59:32.212Z,52.50
2018-12-26T13:00:32.254Z,52.00
2018-12-26T13:01:32.183Z,56.50
2018-12-26T13:02:32.161Z,45.60
2018-12-26T13:03:32.199Z,46.80
2018-12-26T13:04:32.141Z,51.10
2018-12-26T13:05:32.139Z,50.70
2018-12-26T13:06:32.164Z,52.30
2018-12-26T13:07:32.144Z,50.20